createdAt,value
2022-08-03T04:40:53.954Z,100.00
2022-08-03T04:56:47.128Z,100.00
2022-08-03T04:59:15.285Z,100.00
2022-08-03T05:01:43.470Z,100.00
2022-08-03T05:04:11.436Z,100.00
2022-08-03T05:06:41.452Z,100.00
2022-08-03T05:09:16.345Z,100.00
2022-08-03T05:12:05.817Z,99.21
2022-08-03T05:14:34.542Z,95.53
2022-08-03T05:17:02.499Z,95.78
2022-08-03T05:19:30.757Z,94.60
2022-08-03T05:21:58.794Z,96.16
2022-08-03T05:24:27.404Z,95.73
2022-08-03T05:26:55.310Z,90.82
2022-08-03T05:29:23.014Z,89.25
2022-08-03T05:31:50.770Z,90.53
2022-08-03T05:34:18.664Z,92.96
2022-08-03T05:36:46.471Z,94.05
2022-08-03T05:39:14.188Z,96.71
2022-08-03T05:41:41.928Z,99.33
2022-08-03T05:44:09.791Z,99.80
2022-08-03T05:46:37.897Z,96.97
2022-08-03T05:49:05.639Z,95.89
2022-08-03T05:51:33.533Z,92.25
2022-08-03T05:54:01.212Z,91.73
2022-08-03T05:56:28.997Z,88.50
2022-08-03T05:58:56.945Z,89.60
2022-08-03T06:01:25.197Z,91.19
2022-08-03T06:03:52.971Z,88.67
2022-08-03T06:06:20.921Z,91.77
2022-08-03T06:08:49.022Z,91.90
2022-08-03T06:11:16.981Z,88.20
2022-08-03T06:13:47.239Z,85.31
2022-08-03T06:16:14.965Z,88.15
2022-08-03T06:18:43.455Z,87.80
2022-08-03T06:21:14.391Z,91.15
2022-08-03T06:23:55.174Z,90.17
2022-08-03T06:26:25.068Z,93.08
2022-08-03T06:28:54.431Z,91.67
2022-08-03T06:31:32.326Z,92.46
2022-08-03T06:34:32.916Z,90.87
2022-08-03T06:36:53.235Z,89.05
2022-08-03T06:39:23.477Z,95.41
2022-08-03T06:41:51.974Z,94.79
2022-08-03T06:44:20.229Z,92.92
2022-08-03T06:46:47.993Z,89.66
2022-08-03T06:49:15.838Z,89.01
2022-08-03T06:52:04.222Z,85.33
2022-08-03T06:54:33.293Z,85.96
2022-08-03T06:57:01.574Z,82.92
2022-08-03T07:00:07.918Z,83.19
2022-08-03T07:02:19.560Z,79.80
2022-08-03T07:04:50.525Z,80.41
2022-08-03T07:07:19.563Z,83.03
2022-08-03T07:09:57.138Z,85.07
2022-08-03T07:12:27.183Z,86.47
2022-08-03T07:14:59.798Z,85.40
2022-08-03T07:17:29.793Z,83.92
2022-08-03T07:19:58.206Z,79.96
2022-08-03T07:22:26.059Z,79.91
2022-08-03T07:24:53.914Z,82.45
2022-08-03T07:27:22.638Z,83.07
2022-08-03T07:29:50.334Z,83.31
2022-08-03T07:32:18.904Z,80.03
2022-08-03T07:34:47.151Z,83.93
2022-08-03T07:37:15.255Z,83.41
2022-08-03T07:39:43.318Z,83.53
2022-08-03T07:42:11.406Z,83.63
2022-08-03T07:44:39.589Z,80.49
2022-08-03T07:47:07.601Z,78.77
2022-08-03T07:49:41.422Z,79.28
2022-08-03T07:52:28.414Z,75.46
2022-08-03T07:54:56.377Z,75.42
2022-08-03T07:57:24.227Z,78.19
2022-08-03T07:59:56.640Z,76.73
2022-08-03T08:02:25.256Z,74.59
2022-08-03T08:04:53.255Z,75.88
2022-08-03T08:07:21.025Z,78.24
2022-08-03T08:09:48.773Z,77.67
2022-08-03T08:12:17.071Z,75.61
2022-08-03T08:14:48.075Z,77.05
2022-08-03T08:17:15.931Z,75.50
2022-08-03T08:19:51.451Z,73.96
2022-08-03T08:22:28.742Z,74.96
2022-08-03T08:25:01.766Z,81.47
2022-08-03T08:28:31.105Z,72.60
2022-08-03T08:30:20.377Z,71.49
2022-08-03T08:32:48.441Z,71.86
2022-08-03T08:35:16.523Z,72.38
2022-08-03T08:37:51.141Z,71.55
2022-08-03T08:40:21.333Z,73.13
2022-08-03T08:42:58.460Z,69.50
2022-08-03T08:45:27.896Z,72.53
2022-08-03T08:48:00.333Z,69.47
2022-08-03T08:50:29.952Z,67.29
2022-08-03T08:52:58.824Z,68.15
2022-08-03T08:55:26.599Z,68.48
2022-08-03T08:58:02.731Z,66.14
2022-08-03T09:00:31.296Z,65.96
2022-08-03T09:02:59.010Z,65.80
2022-08-03T09:05:54.649Z,67.08
2022-08-03T09:08:14.712Z,70.78
2022-08-03T09:10:42.616Z,71.18
2022-08-03T09:13:10.368Z,68.81
2022-08-03T09:15:39.285Z,67.63
2022-08-03T09:18:07.203Z,68.41
2022-08-03T09:20:35.226Z,66.12
2022-08-03T09:23:19.045Z,68.68
2022-08-03T09:25:52.983Z,67.86
2022-08-03T09:28:59.704Z,64.64
2022-08-03T09:31:08.759Z,63.64
2022-08-03T09:33:47.146Z,68.69
2022-08-03T09:36:35.063Z,63.24
2022-08-03T09:39:07.416Z,61.89
2022-08-03T09:41:35.391Z,64.48
2022-08-03T09:44:03.053Z,64.50
2022-08-03T09:46:32.150Z,63.52
2022-08-03T09:49:11.649Z,60.35
2022-08-03T09:52:31.432Z,61.65
2022-08-03T09:54:29.277Z,64.99
2022-08-03T09:56:57.124Z,64.82
2022-08-03T09:59:29.039Z,65.25
2022-08-03T10:01:57.770Z,62.70
2022-08-03T10:04:25.751Z,61.45
2022-08-03T10:07:09.622Z,59.89
2022-08-03T10:09:37.956Z,66.21
2022-08-03T10:12:10.794Z,65.02
2022-08-03T10:14:39.485Z,59.94
2022-08-03T10:17:07.209Z,59.48
2022-08-03T10:19:35.058Z,61.51
2022-08-03T10:22:19.275Z,64.06
2022-08-03T10:24:53.023Z,61.37
2022-08-03T10:27:21.032Z,58.59
2022-08-03T10:29:52.653Z,61.59
2022-08-03T10:32:29.467Z,65.30
2022-08-03T10:35:18.908Z,59.90
2022-08-03T10:37:57.399Z,61.29
2022-08-03T10:40:49.580Z,60.40
2022-08-03T10:43:23.311Z,61.39
2022-08-03T10:45:51.388Z,59.36
2022-08-03T10:48:19.460Z,58.81
2022-08-03T10:50:48.699Z,60.34
2022-08-03T10:53:18.613Z,56.15
2022-08-03T10:56:06.516Z,58.79
2022-08-03T10:58:56.941Z,58.96
2022-08-03T11:01:58.359Z,56.43
2022-08-03T11:04:30.388Z,51.20
2022-08-03T11:07:23.038Z,49.65
2022-08-03T11:09:54.616Z,52.95
2022-08-03T11:12:28.371Z,53.51
2022-08-03T11:15:01.815Z,51.90
2022-08-03T11:17:29.847Z,51.85
2022-08-03T11:19:58.580Z,53.34
2022-08-03T11:22:29.202Z,47.47
2022-08-03T11:24:57.760Z,48.17
2022-08-03T11:27:32.373Z,50.77
2022-08-03T11:30:10.369Z,47.52
2022-08-03T11:32:38.465Z,44.76
2022-08-03T11:35:24.292Z,45.15
2022-08-03T11:38:03.058Z,45.97
2022-08-03T11:40:35.923Z,45.77
2022-08-03T11:43:04.964Z,44.42
2022-08-03T11:45:32.788Z,44.46
2022-08-03T11:48:12.786Z,45.41
2022-08-03T11:50:41.510Z,45.47
2022-08-03T11:53:17.249Z,44.31
2022-08-03T11:55:49.109Z,43.94
2022-08-03T11:59:01.264Z,45.15
2022-08-03T12:01:07.466Z,43.37
2022-08-03T12:03:35.393Z,45.18
2022-08-03T12:06:04.602Z,45.64
2022-08-03T12:08:33.519Z,44.01
2022-08-03T12:11:05.964Z,44.91
2022-08-03T12:14:44.470Z,45.63
2022-08-03T12:16:33.192Z,45.27
2022-08-03T12:19:02.949Z,43.73
2022-08-03T12:21:30.980Z,42.99
2022-08-03T12:24:00.669Z,42.82
2022-08-03T12:26:29.590Z,42.80
2022-08-03T12:28:58.350Z,41.69
2022-08-03T12:31:26.628Z,40.14
2022-08-03T12:34:05.309Z,39.78
2022-08-03T12:36:35.255Z,40.91
2022-08-03T12:39:06.327Z,41.13
2022-08-03T12:41:38.257Z,40.55
2022-08-03T12:44:06.987Z,39.58
2022-08-03T12:46:42.738Z,39.92
2022-08-03T12:49:20.122Z,39.22
2022-08-03T12:51:51.432Z,38.54
2022-08-03T12:54:24.338Z,39.35
2022-08-03T12:57:08.221Z,39.30
2022-08-03T12:59:49.935Z,38.96
2022-08-03T13:02:26.314Z,39.13
2022-08-03T13:04:54.984Z,38.69
2022-08-03T13:07:23.263Z,38.85
2022-08-03T13:09:53.164Z,39.20
2022-08-03T13:12:25.606Z,38.76
2022-08-03T13:14:55.991Z,39.58
2022-08-03T13:17:24.110Z,38.90
2022-08-03T13:19:52.146Z,38.97
2022-08-03T13:22:30.426Z,38.64
2022-08-03T13:24:58.396Z,38.39
2022-08-03T13:28:03.565Z,39.57
2022-08-03T13:30:14.428Z,40.06
2022-08-03T13:32:52.884Z,40.02
2022-08-03T13:35:20.689Z,39.54
2022-08-03T13:37:49.121Z,39.91
2022-08-03T13:40:17.084Z,40.48
2022-08-03T13:42:45.839Z,40.78
2022-08-03T13:45:13.603Z,43.05
2022-08-03T13:47:41.692Z,42.51
2022-08-03T13:50:09.878Z,43.13
2022-08-03T13:52:37.879Z,42.68
2022-08-03T13:55:06.233Z,42.72
2022-08-03T13:58:02.670Z,43.89
2022-08-03T14:00:29.306Z,42.32
2022-08-03T14:03:05.293Z,40.52
2022-08-03T14:05:38.826Z,39.94
2022-08-03T14:08:07.117Z,39.09
2022-08-03T14:10:38.965Z,38.90
2022-08-03T14:13:06.863Z,40.12
2022-08-03T14:15:37.626Z,41.27
2022-08-03T14:18:15.384Z,43.54
2022-08-03T14:20:50.168Z,43.60
2022-08-03T14:23:22.128Z,42.69
2022-08-03T14:25:52.291Z,43.40
2022-08-03T14:28:24.129Z,43.49
2022-08-03T14:30:52.222Z,44.18
2022-08-03T14:33:20.404Z,45.56
2022-08-03T14:35:50.448Z,45.63
2022-08-03T14:38:18.553Z,45.96
2022-08-03T14:40:46.535Z,46.35
2022-08-03T14:43:15.005Z,43.69
2022-08-03T14:45:42.900Z,43.40
2022-08-03T14:50:29.667Z,43.50
2022-08-03T14:51:00.689Z,44.03
2022-08-03T14:53:29.667Z,43.46
2022-08-03T14:55:57.647Z,42.49
2022-08-03T14:58:26.847Z,42.74
2022-08-03T15:00:56.122Z,42.54
2022-08-03T15:03:25.010Z,42.64
2022-08-03T15:05:53.600Z,42.91
2022-08-03T15:08:22.176Z,43.98
2022-08-03T15:10:50.791Z,42.89
2022-08-03T15:13:19.768Z,43.24
2022-08-03T15:15:48.040Z,42.82
2022-08-03T15:18:15.984Z,44.00
2022-08-03T15:20:45.931Z,44.47
2022-08-03T15:23:15.288Z,43.99
2022-08-03T15:26:04.056Z,44.27
2022-08-03T15:28:32.200Z,46.35
2022-08-03T15:31:00.530Z,44.50
2022-08-03T15:33:28.696Z,46.24
2022-08-03T15:35:56.747Z,45.42
2022-08-03T15:38:25.894Z,45.54
2022-08-03T15:40:57.255Z,45.95
2022-08-03T15:43:25.098Z,46.06
2022-08-03T15:46:26.625Z,47.41
2022-08-03T15:48:41.186Z,48.00
2022-08-03T15:51:09.025Z,48.67
2022-08-03T15:53:37.609Z,48.68
2022-08-03T15:56:11.359Z,47.87
2022-08-03T15:59:03.385Z,47.34
2022-08-03T16:01:30.251Z,47.88
2022-08-03T16:03:57.978Z,47.49
2022-08-03T16:06:34.634Z,48.45
2022-08-03T16:09:22.856Z,47.71
2022-08-03T16:11:55.072Z,48.24
2022-08-03T16:14:33.312Z,48.17
2022-08-03T16:17:05.862Z,50.01
2022-08-03T16:19:33.640Z,50.64
2022-08-03T16:22:01.705Z,49.82
2022-08-03T16:24:31.291Z,49.23
2022-08-03T16:27:00.469Z,50.56
2022-08-03T16:29:28.844Z,50.15
2022-08-03T16:31:56.662Z,50.94
2022-08-03T16:34:24.597Z,50.61
2022-08-03T16:36:52.728Z,51.10
2022-08-03T16:39:20.516Z,50.78
2022-08-03T16:41:53.943Z,52.43
2022-08-03T16:44:29.832Z,52.35
2022-08-03T16:46:58.213Z,51.76
2022-08-03T16:49:54.939Z,51.32
2022-08-03T16:52:14.093Z,53.17
2022-08-03T16:54:50.727Z,55.21
2022-08-03T16:57:56.678Z,54.84
2022-08-03T17:00:34.395Z,57.32
2022-08-03T17:03:04.053Z,57.24
2022-08-03T17:05:47.312Z,57.86
2022-08-03T17:08:16.169Z,58.30
2022-08-03T17:10:44.485Z,59.06
2022-08-03T17:13:21.698Z,58.74
2022-08-03T17:16:03.528Z,59.40
2022-08-03T17:18:35.007Z,59.45
2022-08-03T17:21:06.802Z,59.31
2022-08-03T17:23:47.901Z,59.68
2022-08-03T17:26:21.691Z,59.05
2022-08-03T17:28:58.090Z,59.45
2022-08-03T17:31:31.344Z,58.70
2022-08-03T17:34:01.910Z,59.12
2022-08-03T17:37:00.861Z,59.23
2022-08-03T17:39:30.824Z,59.84
2022-08-03T17:42:29.195Z,60.07
2022-08-03T17:44:56.005Z,60.03
2022-08-03T17:47:40.952Z,60.44
2022-08-03T17:50:24.518Z,61.28
2022-08-03T17:53:15.421Z,61.65
2022-08-03T17:56:42.430Z,62.09
2022-08-03T17:59:16.579Z,62.67
2022-08-03T18:03:00.862Z,63.01
2022-08-03T18:06:11.106Z,64.28
2022-08-03T18:08:29.935Z,64.75
2022-08-03T18:11:14.324Z,65.08
2022-08-03T18:14:15.992Z,64.96
2022-08-03T18:16:48.715Z,64.68
2022-08-03T18:19:16.494Z,64.94
2022-08-03T18:22:02.766Z,65.16
2022-08-03T18:24:32.500Z,65.11
2022-08-03T18:27:03.197Z,65.16
2022-08-03T18:29:31.145Z,65.30
2022-08-03T18:32:03.108Z,65.85
2022-08-03T18:34:33.836Z,66.61
2022-08-03T18:37:07.227Z,67.09
2022-08-03T18:39:50.281Z,67.64
2022-08-03T18:42:26.146Z,68.44
2022-08-03T18:44:55.973Z,68.49
2022-08-03T18:47:52.651Z,69.40
2022-08-03T18:50:49.657Z,69.73
2022-08-03T18:54:02.128Z,69.65
2022-08-03T18:56:30.829Z,69.41
2022-08-03T18:59:07.496Z,69.60
2022-08-03T19:02:00.743Z,69.99
2022-08-03T19:04:34.211Z,70.12
2022-08-03T19:07:07.921Z,71.14
2022-08-03T19:09:45.004Z,71.93
2022-08-03T19:12:30.916Z,72.29
2022-08-03T19:15:12.728Z,72.57
2022-08-03T19:17:53.323Z,72.88
2022-08-03T19:20:28.637Z,74.12
2022-08-03T19:22:57.416Z,74.38
